sensor_id;sensor_type;location;lat;lon;timestamp;pressure;altitude;pressure_sealevel;temperature;humidity
4590;BME280;2307;48.448;9.216;2023-04-24T00:00:45;94445.09;;;11.26;100.00
4590;BME280;2307;48.448;9.216;2023-04-24T00:03:12;94451.44;;;11.25;100.00
4590;BME280;2307;48.448;9.216;2023-04-24T00:05:39;94457.25;;;11.32;100.00
4590;BME280;2307;48.448;9.216;2023-04-24T00:08:06;94457.00;;;11.28;100.00
4590;BME280;2307;48.448;9.216;2023-04-24T00:10:32;94462.28;;;11.33;100.00
4590;BME280;2307;48.448;9.216;2023-04-24T00:13:00;94475.50;;;11.33;100.00
4590;BME280;2307;48.448;9.216;2023-04-24T00:15:27;94466.50;;;11.39;100.00
4590;BME280;2307;48.448;9.216;2023-04-24T00:17:53;94469.69;;;11.36;100.00
4590;BME280;2307;48.448;9.216;2023-04-24T00:20:19;94462.81;;;11.30;100.00
4590;BME280;2307;48.448;9.216;2023-04-24T00:22:46;94454.34;;;11.33;100.00
4590;BME280;2307;48.448;9.216;2023-04-24T00:25:12;94459.38;;;11.40;100.00
4590;BME280;2307;48.448;9.216;2023-04-24T00:27:39;94455.94;;;11.34;100.00
4590;BME280;2307;48.448;9.216;2023-04-24T00:30:07;94460.72;;;11.37;100.00
4590;BME280;2307;48.448;9.216;2023-04-24T00:32:34;94459.13;;;11.41;100.00
4590;BME280;2307;48.448;9.216;2023-04-24T00:35:00;94462.03;;;11.35;100.00
4590;BME280;2307;48.448;9.216;2023-04-24T00:37:26;94454.88;;;11.30;100.00
4590;BME280;2307;48.448;9.216;2023-04-24T00:39:53;94456.72;;;11.30;100.00
4590;BME280;2307;48.448;9.216;2023-04-24T00:42:20;94451.97;;;11.42;100.00
4590;BME280;2307;48.448;9.216;2023-04-24T00:44:46;94463.59;;;11.31;100.00
4590;BME280;2307;48.448;9.216;2023-04-24T00:47:14;94452.47;;;11.24;100.00
4590;BME280;2307;48.448;9.216;2023-04-24T00:49:41;94450.88;;;11.17;100.00
4590;BME280;2307;48.448;9.216;2023-04-24T00:52:07;94437.66;;;11.12;100.00
4590;BME280;2307;48.448;9.216;2023-04-24T00:54:34;94438.72;;;11.11;100.00
4590;BME280;2307;48.448;9.216;2023-04-24T00:57:00;94438.69;;;11.01;100.00
4590;BME280;2307;48.448;9.216;2023-04-24T00:59:27;94442.13;;;11.02;100.00
4590;BME280;2307;48.448;9.216;2023-04-24T01:01:53;94436.31;;;11.00;100.00
4590;BME280;2307;48.448;9.216;2023-04-24T01:04:22;94433.13;;;10.93;100.00
4590;BME280;2307;48.448;9.216;2023-04-24T01:06:48;94423.88;;;10.90;100.00
4590;BME280;2307;48.448;9.216;2023-04-24T01:09:16;94423.06;;;10.90;100.00
4590;BME280;2307;48.448;9.216;2023-04-24T01:11:42;94418.34;;;11.02;100.00
4590;BME280;2307;48.448;9.216;2023-04-24T01:14:09;94424.69;;;11.01;100.00
4590;BME280;2307;48.448;9.216;2023-04-24T01:16:36;94432.88;;;11.04;100.00
4590;BME280;2307;48.448;9.216;2023-04-24T01:19:03;94428.88;;;10.92;100.00
4590;BME280;2307;48.448;9.216;2023-04-24T01:21:31;94424.63;;;10.86;100.00
4590;BME280;2307;48.448;9.216;2023-04-24T01:24:01;94429.13;;;10.80;100.00
4590;BME280;2307;48.448;9.216;2023-04-24T01:26:28;94425.16;;;10.88;100.00
4590;BME280;2307;48.448;9.216;2023-04-24T01:28:54;94422.28;;;10.89;100.00
4590;BME280;2307;48.448;9.216;2023-04-24T01:31:21;94422.00;;;10.86;100.00
4590;BME280;2307;48.448;9.216;2023-04-24T01:33:48;94417.47;;;10.76;100.00
4590;BME280;2307;48.448;9.216;2023-04-24T01:36:15;94419.31;;;10.71;100.00
4590;BME280;2307;48.448;9.216;2023-04-24T01:38:42;94416.63;;;10.65;100.00
4590;BME280;2307;48.448;9.216;2023-04-24T01:41:10;94417.72;;;10.64;100.00
4590;BME280;2307;48.448;9.216;2023-04-24T01:43:36;94410.59;;;10.70;100.00
4590;BME280;2307;48.448;9.216;2023-04-24T01:46:03;94402.91;;;10.63;100.00
4590;BME280;2307;48.448;9.216;2023-04-24T01:48:29;94400.28;;;10.63;100.00
4590;BME280;2307;48.448;9.216;2023-04-24T01:50:56;94397.63;;;10.63;100.00
4590;BME280;2307;48.448;9.216;2023-04-24T01:53:22;94402.34;;;10.56;100.00
4590;BME280;2307;48.448;9.216;2023-04-24T01:55:49;94396.53;;;10.49;100.00
4590;BME280;2307;48.448;9.216;2023-04-24T01:58:17;94398.63;;;10.47;100.00
4590;BME280;2307;48.448;9.216;2023-04-24T02:00:43;94398.34;;;10.39;100.00
4590;BME280;2307;48.448;9.216;2023-04-24T02:03:09;94402.59;;;10.45;100.00
4590;BME280;2307;48.448;9.216;2023-04-24T02:05:36;94405.22;;;10.45;100.00
4590;BME280;2307;48.448;9.216;2023-04-24T02:08:02;94409.69;;;10.39;100.00
4590;BME280;2307;48.448;9.216;2023-04-24T02:10:28;94410.22;;;10.41;100.00
4590;BME280;2307;48.448;9.216;2023-04-24T02:12:55;94412.31;;;10.39;100.00
4590;BME280;2307;48.448;9.216;2023-04-24T02:15:22;94404.19;;;10.46;100.00
4590;BME280;2307;48.448;9.216;2023-04-24T02:17:49;94413.13;;;10.45;100.00
4590;BME280;2307;48.448;9.216;2023-04-24T02:20:15;94420.25;;;10.44;100.00
4590;BME280;2307;48.448;9.216;2023-04-24T02:22:42;94417.09;;;10.42;100.00
4590;BME280;2307;48.448;9.216;2023-04-24T02:25:09;94424.44;;;10.40;100.00
4590;BME280;2307;48.448;9.216;2023-04-24T02:27:35;94421.50;;;10.32;100.00
4590;BME280;2307;48.448;9.216;2023-04-24T02:30:01;94410.16;;;10.26;100.00
4590;BME280;2307;48.448;9.216;2023-04-24T02:32:29;94415.53;;;10.04;100.00
4590;BME280;2307;48.448;9.216;2023-04-24T02:34:56;94410.50;;;9.98;100.00
4590;BME280;2307;48.448;9.216;2023-04-24T02:37:22;94405.75;;;10.00;100.00
4590;BME280;2307;48.448;9.216;2023-04-24T02:39:48;94406.00;;;9.98;100.00
4590;BME280;2307;48.448;9.216;2023-04-24T02:42:15;94408.31;;;9.90;100.00
4590;BME280;2307;48.448;9.216;2023-04-24T02:44:41;94406.91;;;9.77;100.00
4590;BME280;2307;48.448;9.216;2023-04-24T02:47:08;94406.09;;;9.72;100.00
4590;BME280;2307;48.448;9.216;2023-04-24T02:49:36;94401.09;;;9.75;100.00
4590;BME280;2307;48.448;9.216;2023-04-24T02:52:02;94408.75;;;9.77;100.00
4590;BME280;2307;48.448;9.216;2023-04-24T02:54:28;94407.69;;;9.73;100.00
4590;BME280;2307;48.448;9.216;2023-04-24T02:56:55;94409.31;;;9.79;100.00
4590;BME280;2307;48.448;9.216;2023-04-24T02:59:21;94401.63;;;9.72;100.00
4590;BME280;2307;48.448;9.216;2023-04-24T03:01:48;94402.41;;;9.73;100.00
4590;BME280;2307;48.448;9.216;2023-04-24T03:04:14;94400.31;;;9.75;100.00
4590;BME280;2307;48.448;9.216;2023-04-24T03:06:42;94402.50;;;9.83;100.00
4590;BME280;2307;48.448;9.216;2023-04-24T03:09:09;94394.28;;;9.79;100.00
4590;BME280;2307;48.448;9.216;2023-04-24T03:11:35;94398.19;;;9.77;100.00
4590;BME280;2307;48.448;9.216;2023-04-24T03:14:01;94387.19;;;9.80;100.00
4590;BME280;2307;48.448;9.216;2023-04-24T03:16:28;94391.91;;;9.78;100.00
4590;BME280;2307;48.448;9.216;2023-04-24T03:18:54;94396.72;;;9.86;100.00
4590;BME280;2307;48.448;9.216;2023-04-24T03:21:21;94402.53;;;9.93;100.00
4590;BME280;2307;48.448;9.216;2023-04-24T03:23:48;94395.19;;;10.00;100.00
4590;BME280;2307;48.448;9.216;2023-04-24T03:26:15;94399.00;;;10.14;100.00
4590;BME280;2307;48.448;9.216;2023-04-24T03:28:41;94414.09;;;10.24;100.00
4590;BME280;2307;48.448;9.216;2023-04-24T03:31:07;94415.38;;;10.21;100.00
4590;BME280;2307;48.448;9.216;2023-04-24T03:33:34;94406.97;;;10.24;100.00
4590;BME280;2307;48.448;9.216;2023-04-24T03:36:01;94413.88;;;10.30;100.00
4590;BME280;2307;48.448;9.216;2023-04-24T03:38:27;94409.09;;;10.27;100.00
4590;BME280;2307;48.448;9.216;2023-04-24T03:40:55;94402.97;;;10.17;100.00
4590;BME280;2307;48.448;9.216;2023-04-24T03:43:21;94405.44;;;9.91;100.00
4590;BME280;2307;48.448;9.216;2023-04-24T03:45:47;94400.31;;;9.75;100.00
4590;BME280;2307;48.448;9.216;2023-04-24T03:48:14;94402.91;;;9.70;100.00
4590;BME280;2307;48.448;9.216;2023-04-24T03:50:40;94403.38;;;9.61;100.00
4590;BME280;2307;48.448;9.216;2023-04-24T03:53:07;94397.06;;;9.63;100.00
4590;BME280;2307;48.448;9.216;2023-04-24T03:55:33;94394.44;;;9.68;100.00
4590;BME280;2307;48.448;9.216;2023-04-24T03:58:01;94394.34;;;9.52;100.00
4590;BME280;2307;48.448;9.216;2023-04-24T04:00:27;94394.31;;;9.47;100.00
4590;BME280;2307;48.448;9.216;2023-04-24T04:02:56;94401.75;;;9.55;100.00
4590;BME280;2307;48.448;9.216;2023-04-24T04:05:23;94396.25;;;9.62;100.00
4590;BME280;2307;48.448;9.216;2023-04-24T04:07:49;94390.16;;;9.56;100.00
4590;BME280;2307;48.448;9.216;2023-04-24T04:10:15;94389.06;;;9.52;100.00
4590;BME280;2307;48.448;9.216;2023-04-24T04:12:42;94394.41;;;9.57;100.00
4590;BME280;2307;48.448;9.216;2023-04-24T04:15:11;94397.31;;;9.61;100.00
4590;BME280;2307;48.448;9.216;2023-04-24T04:17:37;94395.72;;;9.60;100.00
4590;BME280;2307;48.448;9.216;2023-04-24T04:20:05;94401.84;;;9.66;100.00
4590;BME280;2307;48.448;9.216;2023-04-24T04:22:35;94399.22;;;9.71;100.00
4590;BME280;2307;48.448;9.216;2023-04-24T04:25:01;94410.56;;;9.71;100.00
4590;BME280;2307;48.448;9.216;2023-04-24T04:27:27;94416.13;;;9.75;100.00
4590;BME280;2307;48.448;9.216;2023-04-24T04:29:57;94412.97;;;9.73;100.00
4590;BME280;2307;48.448;9.216;2023-04-24T04:32:25;94417.66;;;9.66;100.00
4590;BME280;2307;48.448;9.216;2023-04-24T04:34:52;94427.72;;;9.74;100.00
4590;BME280;2307;48.448;9.216;2023-04-24T04:37:18;94424.53;;;9.72;100.00
4590;BME280;2307;48.448;9.216;2023-04-24T04:39:44;94424.00;;;9.70;100.00
4590;BME280;2307;48.448;9.216;2023-04-24T04:42:11;94425.94;;;9.79;100.00
4590;BME280;2307;48.448;9.216;2023-04-24T04:44:38;94428.56;;;9.79;100.00
4590;BME280;2307;48.448;9.216;2023-04-24T04:47:05;94437.31;;;9.85;100.00
4590;BME280;2307;48.448;9.216;2023-04-24T04:49:35;94449.78;;;9.99;100.00
4590;BME280;2307;48.448;9.216;2023-04-24T04:52:01;94455.28;;;9.93;100.00
4590;BME280;2307;48.448;9.216;2023-04-24T04:54:28;94453.34;;;9.78;100.00
4590;BME280;2307;48.448;9.216;2023-04-24T04:56:54;94476.25;;;9.73;100.00
4590;BME280;2307;48.448;9.216;2023-04-24T04:59:22;94510.44;;;9.68;100.00
4590;BME280;2307;48.448;9.216;2023-04-24T05:01:48;94528.66;;;9.16;100.00
4590;BME280;2307;48.448;9.216;2023-04-24T05:04:15;94538.91;;;8.69;100.00
4590;BME280;2307;48.448;9.216;2023-04-24T05:06:42;94533.03;;;8.45;100.00
4590;BME280;2307;48.448;9.216;2023-04-24T05:09:09;94528.41;;;8.19;100.00
4590;BME280;2307;48.448;9.216;2023-04-24T05:11:35;94536.06;;;8.03;100.00
4590;BME280;2307;48.448;9.216;2023-04-24T05:14:02;94555.59;;;7.91;100.00
4590;BME280;2307;48.448;9.216;2023-04-24T05:16:28;94543.72;;;7.88;100.00
4590;BME280;2307;48.448;9.216;2023-04-24T05:18:56;94553.91;;;7.85;100.00
4590;BME280;2307;48.448;9.216;2023-04-24T05:21:22;94549.63;;;7.79;100.00
4590;BME280;2307;48.448;9.216;2023-04-24T05:23:50;94541.63;;;7.74;100.00
4590;BME280;2307;48.448;9.216;2023-04-24T05:26:16;94550.00;;;7.71;100.00
4590;BME280;2307;48.448;9.216;2023-04-24T05:28:42;94563.47;;;7.74;100.00
4590;BME280;2307;48.448;9.216;2023-04-24T05:31:09;94555.19;;;7.82;100.00
4590;BME280;2307;48.448;9.216;2023-04-24T05:33:37;94572.78;;;7.82;100.00
4590;BME280;2307;48.448;9.216;2023-04-24T05:36:03;94601.56;;;7.88;100.00
4590;BME280;2307;48.448;9.216;2023-04-24T05:38:30;94606.97;;;7.82;100.00
4590;BME280;2307;48.448;9.216;2023-04-24T05:40:58;94586.72;;;7.66;100.00
4590;BME280;2307;48.448;9.216;2023-04-24T05:43:24;94579.22;;;7.58;100.00
4590;BME280;2307;48.448;9.216;2023-04-24T05:45:51;94576.47;;;7.53;100.00
4590;BME280;2307;48.448;9.216;2023-04-24T05:48:18;94579.50;;;7.44;100.00
4590;BME280;2307;48.448;9.216;2023-04-24T05:50:45;94575.28;;;7.43;100.00
4590;BME280;2307;48.448;9.216;2023-04-24T05:53:13;94571.28;;;7.41;100.00
4590;BME280;2307;48.448;9.216;2023-04-24T05:55:39;94566.38;;;7.44;100.00
4590;BME280;2307;48.448;9.216;2023-04-24T05:58:07;94580.59;;;7.48;100.00
4590;BME280;2307;48.448;9.216;2023-04-24T06:00:34;94575.75;;;7.40;100.00
4590;BME280;2307;48.448;9.216;2023-04-24T06:03:01;94589.34;;;7.37;100.00
4590;BME280;2307;48.448;9.216;2023-04-24T06:05:28;94592.44;;;7.34;100.00
4590;BME280;2307;48.448;9.216;2023-04-24T06:07:55;94603.03;;;7.39;100.00
4590;BME280;2307;48.448;9.216;2023-04-24T06:10:21;94592.63;;;7.44;100.00
4590;BME280;2307;48.448;9.216;2023-04-24T06:12:48;94592.97;;;7.48;100.00
4590;BME280;2307;48.448;9.216;2023-04-24T06:15:16;94590.81;;;7.62;100.00
4590;BME280;2307;48.448;9.216;2023-04-24T06:17:42;94592.50;;;7.68;100.00
4590;BME280;2307;48.448;9.216;2023-04-24T06:20:09;94589.25;;;7.77;100.00
4590;BME280;2307;48.448;9.216;2023-04-24T06:22:36;94582.50;;;7.81;100.00
4590;BME280;2307;48.448;9.216;2023-04-24T06:25:02;94581.22;;;7.84;100.00
4590;BME280;2307;48.448;9.216;2023-04-24T06:27:29;94583.47;;;7.92;100.00
4590;BME280;2307;48.448;9.216;2023-04-24T06:29:55;94585.16;;;7.98;100.00
4590;BME280;2307;48.448;9.216;2023-04-24T06:32:23;94577.59;;;8.01;100.00
4590;BME280;2307;48.448;9.216;2023-04-24T06:34:50;94581.56;;;8.04;100.00
4590;BME280;2307;48.448;9.216;2023-04-24T06:37:17;94582.28;;;7.99;100.00
4590;BME280;2307;48.448;9.216;2023-04-24T06:39:44;94589.28;;;7.94;100.00
4590;BME280;2307;48.448;9.216;2023-04-24T06:42:10;94593.78;;;8.10;100.00
4590;BME280;2307;48.448;9.216;2023-04-24T06:44:37;94593.13;;;8.20;100.00
4590;BME280;2307;48.448;9.216;2023-04-24T06:47:06;94600.31;;;8.24;100.00
4590;BME280;2307;48.448;9.216;2023-04-24T06:49:33;94595.97;;;8.30;100.00
4590;BME280;2307;48.448;9.216;2023-04-24T06:52:00;94587.44;;;8.39;100.00
4590;BME280;2307;48.448;9.216;2023-04-24T06:54:26;94591.25;;;8.48;100.00
4590;BME280;2307;48.448;9.216;2023-04-24T06:56:52;94592.34;;;8.52;100.00
4590;BME280;2307;48.448;9.216;2023-04-24T06:59:20;94603.44;;;8.54;100.00
4590;BME280;2307;48.448;9.216;2023-04-24T07:01:46;94608.69;;;8.54;100.00
4590;BME280;2307;48.448;9.216;2023-04-24T07:04:13;94603.50;;;8.60;100.00
4590;BME280;2307;48.448;9.216;2023-04-24T07:06:41;94608.84;;;8.65;100.00
4590;BME280;2307;48.448;9.216;2023-04-24T07:09:07;94611.06;;;8.73;100.00
4590;BME280;2307;48.448;9.216;2023-04-24T07:11:34;94611.50;;;8.86;100.00
4590;BME280;2307;48.448;9.216;2023-04-24T07:14:03;94609.25;;;8.95;100.00
4590;BME280;2307;48.448;9.216;2023-04-24T07:16:29;94613.13;;;9.09;100.00
4590;BME280;2307;48.448;9.216;2023-04-24T07:18:55;94616.13;;;9.18;100.00
4590;BME280;2307;48.448;9.216;2023-04-24T07:21:22;94615.50;;;9.32;100.00
4590;BME280;2307;48.448;9.216;2023-04-24T07:23:50;94610.44;;;9.47;100.00
4590;BME280;2307;48.448;9.216;2023-04-24T07:26:16;94616.69;;;9.41;100.00
4590;BME280;2307;48.448;9.216;2023-04-24T07:28:42;94615.09;;;9.40;100.00
4590;BME280;2307;48.448;9.216;2023-04-24T07:31:10;94619.06;;;9.43;100.00
4590;BME280;2307;48.448;9.216;2023-04-24T07:33:37;94622.47;;;9.38;100.00
4590;BME280;2307;48.448;9.216;2023-04-24T07:36:03;94650.75;;;9.26;100.00
4590;BME280;2307;48.448;9.216;2023-04-24T07:38:30;94654.94;;;9.22;100.00
4590;BME280;2307;48.448;9.216;2023-04-24T07:40:58;94661.78;;;9.23;100.00
4590;BME280;2307;48.448;9.216;2023-04-24T07:43:24;94673.38;;;9.22;100.00
4590;BME280;2307;48.448;9.216;2023-04-24T07:45:51;94666.56;;;9.26;100.00
4590;BME280;2307;48.448;9.216;2023-04-24T07:48:17;94674.53;;;9.31;100.00
4590;BME280;2307;48.448;9.216;2023-04-24T07:50:46;94676.25;;;9.42;100.00
4590;BME280;2307;48.448;9.216;2023-04-24T07:53:12;94679.81;;;9.31;100.00
4590;BME280;2307;48.448;9.216;2023-04-24T07:55:39;94674.53;;;9.31;100.00
4590;BME280;2307;48.448;9.216;2023-04-24T07:58:07;94698.13;;;9.21;100.00
4590;BME280;2307;48.448;9.216;2023-04-24T08:00:33;94694.31;;;9.34;100.00
4590;BME280;2307;48.448;9.216;2023-04-24T08:02:59;94688.88;;;9.40;100.00
4590;BME280;2307;48.448;9.216;2023-04-24T08:05:26;94702.06;;;9.62;100.00
4590;BME280;2307;48.448;9.216;2023-04-24T08:07:53;94687.66;;;9.70;100.00
4590;BME280;2307;48.448;9.216;2023-04-24T08:10:20;94717.38;;;9.65;100.00
4590;BME280;2307;48.448;9.216;2023-04-24T08:12:46;94714.09;;;9.53;100.00
4590;BME280;2307;48.448;9.216;2023-04-24T08:15:14;94718.97;;;9.44;100.00
4590;BME280;2307;48.448;9.216;2023-04-24T08:17:40;94713.41;;;9.63;100.00
4590;BME280;2307;48.448;9.216;2023-04-24T08:20:08;94714.69;;;9.82;100.00
4590;BME280;2307;48.448;9.216;2023-04-24T08:22:38;94713.47;;;9.89;100.00
4590;BME280;2307;48.448;9.216;2023-04-24T08:25:05;94741.13;;;9.87;100.00
4590;BME280;2307;48.448;9.216;2023-04-24T08:27:31;94725.69;;;9.95;100.00
4590;BME280;2307;48.448;9.216;2023-04-24T08:29:58;94725.09;;;9.93;100.00
4590;BME280;2307;48.448;9.216;2023-04-24T08:32:26;94719.13;;;9.76;100.00
4590;BME280;2307;48.448;9.216;2023-04-24T08:34:53;94740.31;;;9.65;100.00
4590;BME280;2307;48.448;9.216;2023-04-24T08:37:21;94721.44;;;9.51;100.00
4590;BME280;2307;48.448;9.216;2023-04-24T08:39:47;94738.28;;;9.50;100.00
4590;BME280;2307;48.448;9.216;2023-04-24T08:42:14;94729.53;;;9.44;100.00
4590;BME280;2307;48.448;9.216;2023-04-24T08:44:41;94736.94;;;9.47;100.00
4590;BME280;2307;48.448;9.216;2023-04-24T08:47:08;94738.22;;;9.45;100.00
4590;BME280;2307;48.448;9.216;2023-04-24T08:49:37;94740.94;;;9.50;100.00
4590;BME280;2307;48.448;9.216;2023-04-24T08:52:04;94733.88;;;9.55;100.00
4590;BME280;2307;48.448;9.216;2023-04-24T08:54:31;94738.13;;;9.56;100.00
4590;BME280;2307;48.448;9.216;2023-04-24T08:56:58;94726.06;;;9.60;100.00
4590;BME280;2307;48.448;9.216;2023-04-24T08:59:26;94738.84;;;9.74;100.00
4590;BME280;2307;48.448;9.216;2023-04-24T09:01:53;94749.41;;;9.95;100.00
4590;BME280;2307;48.448;9.216;2023-04-24T09:04:21;94754.88;;;9.89;100.00
4590;BME280;2307;48.448;9.216;2023-04-24T09:06:50;94742.50;;;9.89;100.00
4590;BME280;2307;48.448;9.216;2023-04-24T09:09:17;94734.66;;;9.99;100.00
4590;BME280;2307;48.448;9.216;2023-04-24T09:11:43;94741.72;;;9.94;100.00
4590;BME280;2307;48.448;9.216;2023-04-24T09:14:10;94733.28;;;9.92;100.00
4590;BME280;2307;48.448;9.216;2023-04-24T09:16:37;94736.47;;;9.94;100.00
4590;BME280;2307;48.448;9.216;2023-04-24T09:19:03;94726.53;;;10.01;100.00
4590;BME280;2307;48.448;9.216;2023-04-24T09:21:31;94726.72;;;10.16;100.00
4590;BME280;2307;48.448;9.216;2023-04-24T09:23:59;94738.03;;;10.38;100.00
4590;BME280;2307;48.448;9.216;2023-04-24T09:26:28;94731.44;;;10.41;100.00
4590;BME280;2307;48.448;9.216;2023-04-24T09:28:56;94734.78;;;10.58;100.00
4590;BME280;2307;48.448;9.216;2023-04-24T09:31:22;94746.34;;;10.52;100.00
4590;BME280;2307;48.448;9.216;2023-04-24T09:33:56;94767.25;;;10.32;100.00
4590;BME280;2307;48.448;9.216;2023-04-24T09:36:29;94797.59;;;9.69;100.00
4590;BME280;2307;48.448;9.216;2023-04-24T09:38:59;94803.22;;;9.39;100.00
4590;BME280;2307;48.448;9.216;2023-04-24T09:41:27;94804.06;;;9.06;100.00
4590;BME280;2307;48.448;9.216;2023-04-24T09:43:54;94783.00;;;8.90;100.00
4590;BME280;2307;48.448;9.216;2023-04-24T09:46:20;94774.06;;;8.91;100.00
4590;BME280;2307;48.448;9.216;2023-04-24T09:48:47;94790.72;;;8.96;100.00
4590;BME280;2307;48.448;9.216;2023-04-24T09:51:13;94797.56;;;8.97;100.00
4590;BME280;2307;48.448;9.216;2023-04-24T09:53:44;94791.13;;;9.05;100.00
4590;BME280;2307;48.448;9.216;2023-04-24T09:56:13;94797.81;;;9.29;100.00
4590;BME280;2307;48.448;9.216;2023-04-24T09:58:39;94786.78;;;9.32;100.00
4590;BME280;2307;48.448;9.216;2023-04-24T10:01:05;94802.84;;;9.31;100.00
4590;BME280;2307;48.448;9.216;2023-04-24T10:03:32;94804.34;;;9.60;100.00
4590;BME280;2307;48.448;9.216;2023-04-24T10:05:59;94801.59;;;9.72;100.00
4590;BME280;2307;48.448;9.216;2023-04-24T10:08:26;94794.97;;;9.91;100.00
4590;BME280;2307;48.448;9.216;2023-04-24T10:10:58;94795.72;;;10.08;100.00
4590;BME280;2307;48.448;9.216;2023-04-24T10:13:27;94847.97;;;10.28;100.00
4590;BME280;2307;48.448;9.216;2023-04-24T10:15:53;94806.59;;;10.11;95.52
4590;BME280;2307;48.448;9.216;2023-04-24T10:18:20;94799.13;;;10.08;95.94
4590;BME280;2307;48.448;9.216;2023-04-24T10:20:47;94795.03;;;9.96;95.73
4590;BME280;2307;48.448;9.216;2023-04-24T10:23:13;94815.53;;;10.10;94.33
4590;BME280;2307;48.448;9.216;2023-04-24T10:25:41;94812.00;;;10.22;94.79
4590;BME280;2307;48.448;9.216;2023-04-24T10:28:08;94788.72;;;10.40;96.87
4590;BME280;2307;48.448;9.216;2023-04-24T10:30:37;94791.88;;;10.64;95.41
4590;BME280;2307;48.448;9.216;2023-04-24T10:33:05;94808.13;;;10.78;95.99
4590;BME280;2307;48.448;9.216;2023-04-24T10:35:34;94810.34;;;10.64;78.31
4590;BME280;2307;48.448;9.216;2023-04-24T10:38:03;94812.31;;;10.74;79.70
4590;BME280;2307;48.448;9.216;2023-04-24T10:40:32;94801.47;;;11.02;80.98
4590;BME280;2307;48.448;9.216;2023-04-24T10:42:59;94810.59;;;11.21;73.05
4590;BME280;2307;48.448;9.216;2023-04-24T10:45:25;94816.47;;;11.28;73.28
4590;BME280;2307;48.448;9.216;2023-04-24T10:47:54;94807.56;;;11.39;71.43
4590;BME280;2307;48.448;9.216;2023-04-24T10:50:23;94807.13;;;11.52;68.25
4590;BME280;2307;48.448;9.216;2023-04-24T10:52:49;94804.13;;;11.76;65.76
4590;BME280;2307;48.448;9.216;2023-04-24T10:55:16;94805.53;;;11.88;63.18
4590;BME280;2307;48.448;9.216;2023-04-24T11:00:25;94839.66;;;11.90;63.07
4590;BME280;2307;48.448;9.216;2023-04-24T11:02:54;94822.56;;;11.65;61.66
4590;BME280;2307;48.448;9.216;2023-04-24T11:05:22;94840.38;;;11.38;62.43
4590;BME280;2307;48.448;9.216;2023-04-24T11:10:33;94837.47;;;10.81;69.00
4590;BME280;2307;48.448;9.216;2023-04-24T11:13:01;94849.66;;;10.60;67.17
4590;BME280;2307;48.448;9.216;2023-04-24T11:15:28;94853.47;;;10.48;69.93
4590;BME280;2307;48.448;9.216;2023-04-24T11:17:56;94848.34;;;10.36;78.39
4590;BME280;2307;48.448;9.216;2023-04-24T11:20:23;94862.53;;;10.30;76.44
4590;BME280;2307;48.448;9.216;2023-04-24T11:22:51;94840.31;;;10.26;80.06
4590;BME280;2307;48.448;9.216;2023-04-24T11:25:19;94846.38;;;10.27;84.34
4590;BME280;2307;48.448;9.216;2023-04-24T11:27:47;94839.31;;;10.32;88.82
4590;BME280;2307;48.448;9.216;2023-04-24T11:30:16;94850.13;;;10.52;90.57
4590;BME280;2307;48.448;9.216;2023-04-24T11:32:43;94845.88;;;10.51;83.04
4590;BME280;2307;48.448;9.216;2023-04-24T11:35:15;94853.72;;;10.68;81.82
4590;BME280;2307;48.448;9.216;2023-04-24T11:37:42;94863.19;;;10.91;78.71
4590;BME280;2307;48.448;9.216;2023-04-24T11:40:09;94850.28;;;10.68;73.76
4590;BME280;2307;48.448;9.216;2023-04-24T11:42:36;94855.22;;;10.86;76.34
4590;BME280;2307;48.448;9.216;2023-04-24T11:45:07;94861.13;;;10.98;81.23
4590;BME280;2307;48.448;9.216;2023-04-24T11:47:34;94858.38;;;10.88;78.33
4590;BME280;2307;48.448;9.216;2023-04-24T11:50:00;94853.03;;;10.78;75.70
4590;BME280;2307;48.448;9.216;2023-04-24T11:52:28;94862.97;;;10.71;77.60
4590;BME280;2307;48.448;9.216;2023-04-24T11:54:55;94882.50;;;10.70;78.60
4590;BME280;2307;48.448;9.216;2023-04-24T11:57:22;94876.03;;;10.55;76.16
4590;BME280;2307;48.448;9.216;2023-04-24T11:59:48;94866.44;;;10.49;76.65
4590;BME280;2307;48.448;9.216;2023-04-24T12:02:21;94868.63;;;10.79;77.23
4590;BME280;2307;48.448;9.216;2023-04-24T12:04:48;94875.44;;;11.02;79.40
4590;BME280;2307;48.448;9.216;2023-04-24T12:07:14;94859.63;;;11.07;76.29
4590;BME280;2307;48.448;9.216;2023-04-24T12:09:43;94880.63;;;10.92;73.65
4590;BME280;2307;48.448;9.216;2023-04-24T12:12:10;94890.91;;;10.66;74.41
4590;BME280;2307;48.448;9.216;2023-04-24T12:14:43;94908.88;;;10.43;75.57
4590;BME280;2307;48.448;9.216;2023-04-24T12:17:10;94911.28;;;10.28;78.51
4590;BME280;2307;48.448;9.216;2023-04-24T12:19:36;94913.50;;;10.14;78.63
4590;BME280;2307;48.448;9.216;2023-04-24T12:22:03;94903.81;;;10.03;82.98
4590;BME280;2307;48.448;9.216;2023-04-24T12:24:30;94907.09;;;10.10;83.65
4590;BME280;2307;48.448;9.216;2023-04-24T12:26:58;94897.06;;;10.29;83.71
4590;BME280;2307;48.448;9.216;2023-04-24T12:29:26;94902.78;;;10.42;79.44
4590;BME280;2307;48.448;9.216;2023-04-24T12:31:53;94907.72;;;10.55;74.77
4590;BME280;2307;48.448;9.216;2023-04-24T12:34:20;94909.38;;;10.61;78.27
4590;BME280;2307;48.448;9.216;2023-04-24T12:36:47;94904.50;;;10.53;80.04
4590;BME280;2307;48.448;9.216;2023-04-24T12:39:16;94912.06;;;10.66;78.26
4590;BME280;2307;48.448;9.216;2023-04-24T12:41:50;94899.03;;;10.60;74.76
4590;BME280;2307;48.448;9.216;2023-04-24T12:44:36;94903.91;;;10.68;75.17
4590;BME280;2307;48.448;9.216;2023-04-24T12:47:03;94905.47;;;10.91;76.48
4590;BME280;2307;48.448;9.216;2023-04-24T12:49:29;94900.38;;;11.11;73.45
4590;BME280;2307;48.448;9.216;2023-04-24T12:51:56;94898.88;;;11.20;74.67
4590;BME280;2307;48.448;9.216;2023-04-24T12:54:22;94904.22;;;11.25;70.77
4590;BME280;2307;48.448;9.216;2023-04-24T12:56:49;94900.91;;;11.40;71.12
4590;BME280;2307;48.448;9.216;2023-04-24T12:59:15;94902.44;;;11.36;67.14
4590;BME280;2307;48.448;9.216;2023-04-24T13:01:43;94913.34;;;11.12;67.27
4590;BME280;2307;48.448;9.216;2023-04-24T13:04:09;94901.16;;;10.85;68.85
4590;BME280;2307;48.448;9.216;2023-04-24T13:06:36;94893.91;;;10.97;71.59
4590;BME280;2307;48.448;9.216;2023-04-24T13:09:02;94894.69;;;10.97;68.96
4590;BME280;2307;48.448;9.216;2023-04-24T13:11:29;94887.63;;;11.03;66.96
4590;BME280;2307;48.448;9.216;2023-04-24T13:13:55;94912.91;;;10.94;68.47
4590;BME280;2307;48.448;9.216;2023-04-24T13:16:23;94884.09;;;10.97;66.92
4590;BME280;2307;48.448;9.216;2023-04-24T13:18:50;94890.44;;;11.23;68.65
4590;BME280;2307;48.448;9.216;2023-04-24T13:21:17;94880.16;;;11.58;65.71
4590;BME280;2307;48.448;9.216;2023-04-24T13:23:43;94898.81;;;11.73;63.56